createdAt,value
2023-01-01T00:01:40.353Z,67.80
2023-01-01T00:04:10.748Z,67.80
2023-01-01T00:06:37.635Z,67.60
2023-01-01T00:09:23.053Z,67.30
2023-01-01T00:11:49.724Z,67.10
2023-01-01T00:14:16.297Z,66.40
2023-01-01T00:16:42.908Z,66.90
2023-01-01T00:19:09.530Z,67.30
2023-01-01T00:21:36.296Z,67.60
2023-01-01T00:24:02.924Z,67.30
2023-01-01T00:26:34.475Z,67.00
2023-01-01T00:29:01.996Z,66.80
2023-01-01T00:31:28.946Z,67.10
2023-01-01T00:33:56.226Z,66.60
2023-01-01T00:36:23.793Z,66.60
2023-01-01T00:38:52.459Z,66.60
2023-01-01T00:41:19.487Z,67.10
2023-01-01T00:43:46.109Z,67.20
2023-01-01T00:46:13.155Z,67.00
2023-01-01T00:48:39.853Z,66.90
2023-01-01T00:51:06.944Z,66.90
2023-01-01T00:53:33.578Z,67.40
2023-01-01T00:56:00.230Z,66.40
2023-01-01T00:58:27.003Z,66.50
2023-01-01T01:00:54.852Z,66.90
2023-01-01T01:03:30.956Z,67.20
2023-01-01T01:05:57.684Z,66.90
2023-01-01T01:08:30.440Z,67.00
2023-01-01T01:11:24.144Z,67.00
2023-01-01T01:13:55.019Z,67.10
2023-01-01T01:16:23.692Z,66.80
2023-01-01T01:18:51.727Z,66.30
2023-01-01T01:21:19.647Z,67.10
2023-01-01T01:23:46.651Z,66.30
2023-01-01T01:26:14.438Z,67.00
2023-01-01T01:28:48.794Z,66.60
2023-01-01T01:31:16.414Z,67.70
2023-01-01T01:33:43.575Z,66.90
2023-01-01T01:36:10.850Z,67.90
2023-01-01T01:38:37.874Z,66.70
2023-01-01T01:41:04.539Z,66.70
2023-01-01T01:43:31.079Z,66.60
2023-01-01T01:45:59.305Z,66.70
2023-01-01T01:48:25.926Z,67.00
2023-01-01T01:50:53.400Z,66.30
2023-01-01T01:53:23.868Z,66.60
2023-01-01T01:56:01.079Z,66.80
2023-01-01T01:58:28.364Z,66.80
2023-01-01T02:00:55.500Z,67.00
2023-01-01T02:03:25.234Z,66.10
2023-01-01T02:05:51.977Z,65.90
2023-01-01T02:08:19.505Z,66.20
2023-01-01T02:10:46.058Z,66.60
2023-01-01T02:13:13.621Z,66.60
2023-01-01T02:15:54.617Z,66.70
2023-01-01T02:18:26.031Z,66.60
2023-01-01T02:21:18.988Z,66.90
2023-01-01T02:23:57.825Z,66.90
2023-01-01T02:26:42.442Z,66.40
2023-01-01T02:29:12.148Z,66.00
2023-01-01T02:31:42.326Z,66.10
2023-01-01T02:34:10.955Z,67.20
2023-01-01T02:36:40.468Z,66.80
2023-01-01T02:39:07.789Z,66.60
2023-01-01T02:41:38.643Z,67.20
2023-01-01T02:46:32.260Z,66.50
2023-01-01T02:49:01.237Z,67.20
2023-01-01T02:51:36.508Z,66.60
2023-01-01T02:54:18.278Z,66.30
2023-01-01T02:56:48.692Z,66.60
2023-01-01T02:59:38.313Z,66.60
2023-01-01T03:02:08.041Z,66.50
2023-01-01T03:05:01.407Z,66.50
2023-01-01T03:07:54.862Z,66.40
2023-01-01T03:10:47.905Z,66.50
2023-01-01T03:13:20.713Z,66.30
2023-01-01T03:16:02.709Z,66.00
2023-01-01T03:18:33.877Z,65.60
2023-01-01T03:21:01.743Z,66.80
2023-01-01T03:23:35.645Z,66.20
2023-01-01T03:26:05.090Z,66.80
2023-01-01T03:28:36.783Z,66.10
2023-01-01T03:31:03.820Z,65.70
2023-01-01T03:33:33.730Z,66.10
2023-01-01T03:36:11.908Z,66.60
2023-01-01T03:38:38.452Z,66.50
2023-01-01T03:41:08.135Z,66.20
2023-01-01T03:43:40.977Z,66.00
2023-01-01T03:46:08.347Z,65.90
2023-01-01T03:49:02.167Z,65.40
2023-01-01T03:51:39.124Z,65.20
2023-01-01T03:54:14.396Z,65.00
2023-01-01T03:56:51.945Z,65.10
2023-01-01T03:59:22.346Z,64.80
2023-01-01T04:01:52.019Z,65.20
2023-01-01T04:04:19.336Z,65.80
2023-01-01T04:06:46.190Z,65.20
2023-01-01T04:09:15.962Z,65.00
2023-01-01T04:12:04.226Z,65.60
2023-01-01T04:14:33.157Z,65.10
2023-01-01T04:17:00.376Z,64.90
2023-01-01T04:19:26.954Z,65.10
2023-01-01T04:21:53.537Z,65.30
2023-01-01T04:24:20.463Z,65.20
2023-01-01T04:26:47.079Z,65.10
2023-01-01T04:29:13.779Z,64.90
2023-01-01T04:31:40.550Z,65.20
2023-01-01T04:34:07.212Z,66.10
2023-01-01T04:36:34.210Z,66.00
2023-01-01T04:39:00.900Z,65.60
2023-01-01T04:41:27.447Z,65.40
2023-01-01T04:43:54.022Z,65.20
2023-01-01T04:46:21.237Z,64.90
2023-01-01T04:48:48.088Z,65.40
2023-01-01T04:51:15.569Z,65.20
2023-01-01T04:53:42.159Z,65.30
2023-01-01T04:56:10.115Z,65.30
2023-01-01T04:58:37.528Z,65.50
2023-01-01T05:01:04.358Z,65.70
2023-01-01T05:03:31.500Z,65.00
2023-01-01T05:06:02.180Z,66.00
2023-01-01T05:08:30.331Z,65.10
2023-01-01T05:11:01.115Z,65.40
2023-01-01T05:13:27.753Z,65.10
2023-01-01T05:15:54.334Z,65.00
2023-01-01T05:18:20.935Z,65.50
2023-01-01T05:20:47.502Z,65.90
2023-01-01T05:23:16.492Z,65.10
2023-01-01T05:25:43.405Z,65.40
2023-01-01T05:28:09.985Z,65.50
2023-01-01T05:30:40.289Z,65.00
2023-01-01T05:33:06.908Z,65.10
2023-01-01T05:35:33.498Z,65.20
2023-01-01T05:38:00.348Z,65.30
2023-01-01T05:40:26.983Z,64.80
2023-01-01T05:42:53.557Z,65.30
2023-01-01T05:45:20.138Z,65.40
2023-01-01T05:47:46.725Z,65.10
2023-01-01T05:52:38.863Z,64.90
2023-01-01T05:55:05.702Z,65.40
2023-01-01T05:57:32.250Z,65.00
2023-01-01T05:59:58.923Z,65.10
2023-01-01T06:02:25.584Z,65.00
2023-01-01T06:04:52.314Z,64.70
2023-01-01T06:07:19.013Z,65.50
2023-01-01T06:09:45.785Z,64.60
2023-01-01T06:12:12.332Z,64.60
2023-01-01T06:14:38.908Z,64.50
2023-01-01T06:17:05.626Z,64.70
2023-01-01T06:19:32.210Z,64.60
2023-01-01T06:21:58.791Z,65.10
2023-01-01T06:24:25.377Z,64.90
2023-01-01T06:26:51.941Z,65.00
2023-01-01T06:29:18.521Z,65.30
2023-01-01T06:31:45.128Z,65.00
2023-01-01T06:34:11.691Z,64.40
2023-01-01T06:36:38.285Z,65.20
2023-01-01T06:39:04.945Z,64.70
2023-01-01T06:41:31.650Z,64.50
2023-01-01T06:43:58.751Z,64.80
2023-01-01T06:46:26.350Z,64.20
2023-01-01T06:48:57.399Z,64.70
2023-01-01T06:51:25.311Z,64.90
2023-01-01T06:53:52.315Z,65.30
2023-01-01T06:56:19.700Z,65.00
2023-01-01T06:58:46.470Z,64.50
2023-01-01T07:01:17.499Z,64.60
2023-01-01T07:03:44.545Z,64.70
2023-01-01T07:06:11.431Z,64.50
2023-01-01T07:08:38.035Z,64.00
2023-01-01T07:11:04.707Z,64.30
2023-01-01T07:13:31.602Z,64.30
2023-01-01T07:15:58.456Z,64.80
2023-01-01T07:18:26.124Z,64.40
2023-01-01T07:20:55.009Z,64.30
2023-01-01T07:23:21.558Z,63.90
2023-01-01T07:25:52.076Z,64.60
2023-01-01T07:28:19.100Z,64.30
2023-01-01T07:30:45.777Z,64.20
2023-01-01T07:33:13.746Z,64.60
2023-01-01T07:35:40.704Z,64.70
2023-01-01T07:38:07.687Z,64.70
2023-01-01T07:40:34.292Z,64.00
2023-01-01T07:43:00.878Z,64.80
2023-01-01T07:45:27.755Z,64.00
2023-01-01T07:47:55.362Z,63.70
2023-01-01T07:50:23.080Z,64.60
2023-01-01T07:52:49.765Z,64.10
2023-01-01T07:55:17.147Z,64.30
2023-01-01T07:57:44.356Z,63.70
2023-01-01T08:00:15.065Z,64.30
2023-01-01T08:02:41.829Z,64.00
2023-01-01T08:05:08.967Z,64.40
2023-01-01T08:07:35.577Z,63.80
2023-01-01T08:10:02.609Z,64.10
2023-01-01T08:12:29.217Z,64.40
2023-01-01T08:14:55.794Z,63.80
2023-01-01T08:17:22.384Z,63.90
2023-01-01T08:19:49.382Z,64.30
2023-01-01T08:22:16.009Z,63.90
2023-01-01T08:24:42.617Z,63.80
2023-01-01T08:27:11.995Z,63.50
2023-01-01T08:29:38.603Z,64.20
2023-01-01T08:32:05.202Z,64.90
2023-01-01T08:34:31.851Z,63.40
2023-01-01T08:36:59.758Z,64.00
2023-01-01T08:39:26.331Z,63.90
2023-01-01T08:41:53.046Z,64.30
2023-01-01T08:44:19.805Z,64.60
2023-01-01T08:46:46.778Z,63.20
2023-01-01T08:49:13.389Z,64.60
2023-01-01T08:51:40.759Z,63.90
2023-01-01T08:54:07.364Z,64.30
2023-01-01T08:56:33.899Z,63.80
2023-01-01T08:59:04.069Z,64.30
2023-01-01T09:01:31.713Z,64.20
2023-01-01T09:03:58.447Z,63.60
2023-01-01T09:06:25.013Z,64.00
2023-01-01T09:08:51.612Z,64.00
2023-01-01T09:11:21.230Z,64.30
2023-01-01T09:13:47.787Z,64.30
2023-01-01T09:16:14.399Z,63.70
2023-01-01T09:18:40.987Z,63.60
2023-01-01T09:21:07.557Z,63.90
2023-01-01T09:23:34.142Z,64.30
2023-01-01T09:26:04.858Z,64.30
2023-01-01T09:28:31.661Z,63.50
2023-01-01T09:30:58.289Z,63.50
2023-01-01T09:33:24.900Z,63.40
2023-01-01T09:35:52.167Z,63.60
2023-01-01T09:38:19.428Z,63.80
2023-01-01T09:41:10.765Z,63.20
2023-01-01T09:43:40.363Z,63.70
2023-01-01T09:46:07.877Z,63.10
2023-01-01T09:48:38.014Z,63.20
2023-01-01T09:51:05.750Z,63.20
2023-01-01T09:53:39.846Z,63.30
2023-01-01T09:56:11.110Z,63.40
2023-01-01T09:58:37.971Z,63.20
2023-01-01T10:01:23.209Z,63.70
2023-01-01T10:04:08.602Z,63.60
2023-01-01T10:06:39.613Z,63.40
2023-01-01T10:09:09.498Z,63.60
2023-01-01T10:11:42.483Z,63.30
2023-01-01T10:14:16.862Z,63.30
2023-01-01T10:16:45.169Z,63.00
2023-01-01T10:19:24.100Z,62.90
2023-01-01T10:21:52.926Z,62.90
2023-01-01T10:24:25.714Z,62.90
2023-01-01T10:26:53.645Z,62.50
2023-01-01T10:29:24.503Z,62.60
2023-01-01T10:31:51.164Z,63.30
2023-01-01T10:34:28.447Z,63.30
2023-01-01T10:36:57.250Z,63.90
2023-01-01T10:39:24.629Z,63.50
2023-01-01T10:41:51.494Z,63.30
2023-01-01T10:44:28.788Z,63.40
2023-01-01T10:46:58.746Z,63.70
2023-01-01T10:49:25.296Z,63.10
2023-01-01T10:51:53.265Z,62.70
2023-01-01T10:54:36.766Z,61.70
2023-01-01T10:57:13.932Z,62.40
2023-01-01T10:59:41.510Z,62.40
2023-01-01T11:02:15.091Z,62.90
2023-01-01T11:04:42.060Z,62.70
2023-01-01T11:07:08.657Z,62.70
2023-01-01T11:09:39.487Z,62.40
2023-01-01T11:12:19.122Z,62.10
2023-01-01T11:14:54.623Z,62.30
2023-01-01T11:17:22.538Z,62.30
2023-01-01T11:19:51.897Z,61.90
2023-01-01T11:22:41.249Z,61.90
2023-01-01T11:25:20.227Z,62.00
2023-01-01T11:27:47.527Z,61.70
2023-01-01T11:30:24.778Z,61.90
2023-01-01T11:32:55.648Z,61.80
2023-01-01T11:35:23.682Z,62.10
2023-01-01T11:37:51.522Z,62.30
2023-01-01T11:40:19.790Z,61.50
2023-01-01T11:42:48.704Z,62.50
2023-01-01T11:45:37.420Z,61.90
2023-01-01T11:48:08.520Z,62.20
2023-01-01T11:50:37.913Z,62.00
2023-01-01T11:53:36.809Z,62.30
2023-01-01T11:56:03.480Z,62.40
2023-01-01T11:58:36.118Z,62.40
2023-01-01T12:01:05.088Z,62.90
2023-01-01T12:03:42.440Z,62.70
2023-01-01T12:06:14.920Z,62.70
2023-01-01T12:08:44.089Z,62.60
2023-01-01T12:11:15.187Z,62.40
2023-01-01T12:13:48.572Z,62.90
2023-01-01T12:16:28.546Z,63.00
2023-01-01T12:19:18.798Z,63.00
2023-01-01T12:21:52.376Z,63.20
2023-01-01T12:24:19.853Z,63.30
2023-01-01T12:27:10.590Z,63.10
2023-01-01T12:29:37.760Z,63.10
2023-01-01T12:32:24.618Z,63.10
2023-01-01T12:34:58.475Z,63.30
2023-01-01T12:37:36.381Z,63.30
2023-01-01T12:40:24.803Z,63.30
2023-01-01T12:43:00.352Z,63.20
2023-01-01T12:45:30.908Z,63.80
2023-01-01T12:48:13.579Z,63.20
2023-01-01T12:50:57.268Z,63.10
2023-01-01T12:53:26.545Z,63.50
2023-01-01T12:56:11.535Z,63.30
2023-01-01T12:58:40.499Z,63.60
2023-01-01T13:01:10.233Z,63.70
2023-01-01T13:03:42.657Z,64.00
2023-01-01T13:06:11.806Z,63.10
2023-01-01T13:08:39.986Z,63.30
2023-01-01T13:11:07.190Z,63.20
2023-01-01T13:13:34.093Z,63.00
2023-01-01T13:16:00.835Z,62.90
2023-01-01T13:18:29.210Z,64.10
2023-01-01T13:20:57.485Z,63.70
2023-01-01T13:23:29.842Z,63.30
2023-01-01T13:26:30.929Z,63.30
2023-01-01T13:28:57.672Z,63.30
2023-01-01T13:31:39.825Z,63.70
2023-01-01T13:34:25.329Z,63.90
2023-01-01T13:36:51.901Z,63.80
2023-01-01T13:39:37.358Z,64.10
2023-01-01T13:42:03.999Z,63.60
2023-01-01T13:44:30.896Z,63.60
2023-01-01T13:47:00.422Z,63.70
2023-01-01T13:49:27.045Z,64.00
2023-01-01T13:52:07.450Z,64.00
2023-01-01T13:54:35.373Z,63.80
2023-01-01T13:57:13.591Z,64.00
2023-01-01T13:59:40.122Z,64.20
2023-01-01T14:02:18.233Z,64.00
2023-01-01T14:05:03.028Z,64.00
2023-01-01T14:07:52.347Z,63.90
2023-01-01T14:10:36.516Z,63.30
2023-01-01T14:13:06.327Z,63.80
2023-01-01T14:15:37.379Z,63.90
2023-01-01T14:18:05.550Z,64.00
2023-01-01T14:20:39.673Z,63.90
2023-01-01T14:23:09.267Z,64.30
2023-01-01T14:25:36.197Z,64.00
2023-01-01T14:28:02.901Z,63.90
2023-01-01T14:30:30.972Z,63.90
2023-01-01T14:32:58.632Z,64.30
2023-01-01T14:35:25.380Z,64.00
2023-01-01T14:37:52.282Z,64.30
2023-01-01T14:40:28.010Z,64.30
2023-01-01T14:43:15.096Z,64.50
2023-01-01T14:45:42.539Z,63.90
2023-01-01T14:48:19.554Z,64.00
2023-01-01T14:50:50.834Z,64.10
2023-01-01T14:53:20.539Z,64.10
2023-01-01T14:55:48.727Z,63.90
2023-01-01T14:58:26.057Z,64.40
2023-01-01T15:00:53.052Z,64.00
2023-01-01T15:03:20.997Z,64.10
2023-01-01T15:05:57.887Z,64.30
2023-01-01T15:08:25.683Z,63.90
2023-01-01T15:10:53.160Z,64.10
2023-01-01T15:13:21.368Z,63.80
2023-01-01T15:15:49.307Z,64.40
2023-01-01T15:18:35.613Z,64.30
2023-01-01T15:21:14.137Z,64.50
2023-01-01T15:23:48.500Z,64.30
2023-01-01T15:26:17.348Z,64.00
2023-01-01T15:28:43.919Z,63.70
2023-01-01T15:31:12.132Z,64.00
2023-01-01T15:33:38.700Z,64.10
2023-01-01T15:36:05.489Z,63.80
2023-01-01T15:38:36.541Z,64.00
2023-01-01T15:41:23.077Z,64.30
2023-01-01T15:43:49.618Z,64.90
2023-01-01T15:46:20.758Z,64.00
2023-01-01T15:48:51.737Z,64.00
2023-01-01T15:51:28.173Z,64.00
2023-01-01T15:53:56.512Z,63.90
2023-01-01T15:56:25.509Z,64.30
2023-01-01T15:59:02.441Z,63.90
2023-01-01T16:01:35.326Z,64.00
2023-01-01T16:04:09.666Z,65.00
2023-01-01T16:06:46.840Z,64.10
2023-01-01T16:09:14.105Z,63.90
2023-01-01T16:11:40.795Z,63.90
2023-01-01T16:14:07.700Z,64.00
2023-01-01T16:16:34.921Z,64.30
2023-01-01T16:19:01.673Z,64.20
2023-01-01T16:21:29.611Z,65.20
2023-01-01T16:23:56.351Z,64.00
2023-01-01T16:26:23.078Z,63.90
2023-01-01T16:28:49.735Z,63.90
2023-01-01T16:31:17.782Z,64.10
2023-01-01T16:33:47.359Z,63.70
2023-01-01T16:36:14.025Z,65.30
2023-01-01T16:38:40.712Z,64.80
2023-01-01T16:41:11.592Z,64.00
2023-01-01T16:43:38.205Z,65.00
2023-01-01T16:46:08.474Z,64.90
2023-01-01T16:48:40.008Z,63.70
2023-01-01T16:51:07.237Z,64.30
2023-01-01T16:53:33.966Z,65.30
2023-01-01T16:56:00.622Z,63.20
2023-01-01T17:01:13.918Z,64.30
2023-01-01T17:03:40.624Z,64.10
2023-01-01T17:06:08.604Z,63.90
2023-01-01T17:08:35.731Z,64.00
2023-01-01T17:11:09.829Z,63.80
2023-01-01T17:13:36.872Z,64.90
2023-01-01T17:16:03.616Z,64.80
2023-01-01T17:18:55.069Z,64.10
2023-01-01T17:21:17.168Z,64.20
2023-01-01T17:23:43.784Z,64.00
2023-01-01T17:26:10.649Z,64.70
2023-01-01T17:28:37.362Z,64.40
2023-01-01T17:31:05.259Z,64.10
2023-01-01T17:33:32.851Z,62.50
2023-01-01T17:35:59.891Z,62.70
2023-01-01T17:38:26.921Z,63.00
2023-01-01T17:40:53.533Z,62.00
2023-01-01T17:43:20.471Z,62.10
2023-01-01T17:45:47.120Z,62.10
2023-01-01T17:48:13.682Z,62.00
2023-01-01T17:50:40.627Z,62.30
2023-01-01T17:53:13.812Z,61.90
2023-01-01T17:55:41.254Z,62.00
2023-01-01T17:58:07.881Z,62.30
2023-01-01T18:00:34.522Z,62.40
2023-01-01T18:03:01.272Z,62.00
2023-01-01T18:05:28.007Z,63.00
2023-01-01T18:07:54.615Z,62.10
2023-01-01T18:10:21.203Z,62.50
2023-01-01T18:12:47.829Z,62.60
2023-01-01T18:15:14.590Z,62.90
2023-01-01T18:17:41.355Z,63.60
2023-01-01T18:20:08.313Z,63.10
2023-01-01T18:22:41.081Z,63.30
2023-01-01T18:25:09.725Z,63.30
2023-01-01T18:27:36.323Z,63.30
2023-01-01T18:30:03.535Z,63.30
2023-01-01T18:32:30.077Z,63.30
2023-01-01T18:34:57.431Z,63.20
2023-01-01T18:37:24.495Z,63.20
2023-01-01T18:39:51.160Z,63.00
2023-01-01T18:42:23.276Z,63.10
2023-01-01T18:44:50.434Z,63.00
2023-01-01T18:47:18.582Z,63.10
2023-01-01T18:49:47.719Z,63.70
2023-01-01T18:52:24.969Z,63.70
2023-01-01T18:55:06.916Z,63.30
2023-01-01T18:57:33.608Z,63.40
2023-01-01T19:00:06.683Z,63.40
2023-01-01T19:02:38.020Z,63.30
2023-01-01T19:05:14.089Z,63.30
2023-01-01T19:07:40.905Z,63.30
2023-01-01T19:10:11.786Z,63.50
2023-01-01T19:12:38.707Z,63.50
2023-01-01T19:15:15.540Z,63.80
2023-01-01T19:17:42.301Z,63.70
2023-01-01T19:20:21.425Z,63.60
2023-01-01T19:22:48.246Z,63.50
2023-01-01T19:25:29.804Z,64.00
2023-01-01T19:27:56.472Z,63.40
2023-01-01T19:30:23.288Z,63.30
2023-01-01T19:32:50.005Z,63.20
2023-01-01T19:35:16.806Z,63.20
2023-01-01T19:37:43.409Z,63.10
2023-01-01T19:40:11.440Z,63.50
2023-01-01T19:42:38.068Z,63.70
2023-01-01T19:45:06.989Z,63.70
2023-01-01T19:47:33.577Z,63.60
2023-01-01T19:50:00.173Z,64.30
2023-01-01T19:52:26.782Z,63.70
2023-01-01T19:54:53.459Z,63.60
2023-01-01T19:57:20.840Z,64.00
2023-01-01T19:59:47.459Z,63.90
2023-01-01T20:05:00.620Z,63.30
2023-01-01T20:07:27.317Z,63.30
2023-01-01T20:09:53.884Z,63.20
2023-01-01T20:12:20.466Z,63.20
2023-01-01T20:14:47.015Z,63.10
2023-01-01T20:17:14.652Z,63.70
2023-01-01T20:19:42.404Z,64.40
2023-01-01T20:22:11.621Z,63.80
2023-01-01T20:24:42.317Z,63.70
2023-01-01T20:27:09.398Z,63.70
2023-01-01T20:29:36.012Z,63.70
2023-01-01T20:32:02.697Z,63.60
2023-01-01T20:34:29.376Z,63.50
2023-01-01T20:37:14.726Z,64.00
2023-01-01T20:39:41.289Z,63.90
2023-01-01T20:42:08.132Z,63.30
2023-01-01T20:44:35.699Z,63.30
2023-01-01T20:47:02.290Z,63.30
2023-01-01T20:49:28.852Z,63.60
2023-01-01T20:51:55.413Z,63.60
2023-01-01T20:54:22.640Z,63.90
2023-01-01T20:56:49.432Z,63.50
2023-01-01T21:02:06.320Z,63.10
2023-01-01T21:04:33.309Z,63.40
2023-01-01T21:06:59.871Z,63.20
2023-01-01T21:09:26.476Z,63.30
2023-01-01T21:11:53.168Z,63.70
2023-01-01T21:14:21.252Z,64.30
2023-01-01T21:16:47.909Z,63.80
2023-01-01T21:19:14.578Z,63.40
2023-01-01T21:21:47.451Z,63.80
2023-01-01T21:24:20.940Z,63.30
2023-01-01T21:26:48.201Z,63.50
2023-01-01T21:29:16.615Z,63.90
2023-01-01T21:31:43.403Z,63.90
2023-01-01T21:34:18.798Z,63.80
2023-01-01T21:36:45.383Z,63.70
2023-01-01T21:39:12.301Z,63.60
2023-01-01T21:41:39.601Z,63.50
2023-01-01T21:44:10.916Z,63.50
2023-01-01T21:46:40.849Z,63.40
2023-01-01T21:49:13.531Z,63.50
2023-01-01T21:51:42.292Z,63.40
2023-01-01T21:54:08.826Z,63.40
2023-01-01T21:56:36.495Z,63.50
2023-01-01T21:59:25.618Z,63.30
2023-01-01T22:02:12.609Z,63.90
2023-01-01T22:04:44.133Z,63.90
2023-01-01T22:10:21.341Z,63.40
2023-01-01T22:12:47.956Z,63.70
2023-01-01T22:15:27.407Z,64.10
2023-01-01T22:18:05.631Z,63.40
2023-01-01T22:20:33.509Z,63.50
2023-01-01T22:23:04.968Z,63.30
2023-01-01T22:25:32.957Z,63.40
2023-01-01T22:28:05.956Z,63.60
2023-01-01T22:30:35.391Z,63.90
2023-01-01T22:33:02.971Z,63.80
2023-01-01T22:35:31.950Z,63.90
2023-01-01T22:38:00.002Z,63.50
2023-01-01T22:40:30.920Z,63.40
2023-01-01T22:43:00.688Z,63.40
2023-01-01T22:45:27.625Z,63.30
2023-01-01T22:47:54.460Z,63.50
2023-01-01T22:50:25.772Z,63.10
2023-01-01T22:52:52.338Z,63.30
2023-01-01T22:55:19.222Z,63.30
2023-01-01T22:57:45.806Z,63.70
2023-01-01T23:00:13.083Z,63.60
2023-01-01T23:02:39.722Z,64.00
2023-01-01T23:05:06.516Z,63.90
2023-01-01T23:07:39.708Z,63.70
2023-01-01T23:10:08.499Z,63.70
2023-01-01T23:12:35.101Z,63.80
2023-01-01T23:15:20.207Z,63.50
2023-01-01T23:17:46.794Z,63.70
2023-01-01T23:20:13.393Z,63.90
2023-01-01T23:22:42.551Z,63.60
2023-01-01T23:25:10.541Z,63.50
2023-01-01T23:27:37.523Z,63.60
2023-01-01T23:30:04.946Z,64.30
2023-01-01T23:32:31.797Z,63.50
2023-01-01T23:34:58.471Z,63.50
2023-01-01T23:37:25.940Z,63.70
2023-01-01T23:39:52.658Z,63.80
2023-01-01T23:42:19.291Z,63.90
2023-01-01T23:44:45.918Z,63.50
2023-01-01T23:47:12.774Z,64.40
2023-01-01T23:49:40.578Z,64.40
2023-01-01T23:52:07.363Z,63.50
2023-01-01T23:54:33.918Z,63.70
2023-01-01T23:57:00.554Z,63.70
2023-01-01T23:59:27.154Z,63.70
